Time;durP1;ratioP1;P1;durP2;ratioP2;P2;SDS_P1;SDS_P2;PMS_P1;PMS_P2;Temp;Humidity;BMP_temperature;BMP_pressure;BME280_temperature;BME280_humidity;BME280_pressure;Samples;Min_cycle;Max_cycle;Signal;HPM_P1;HPM_P2
2023/11/18 00:01:18;;;;;;;2.27;1.63;;;;;;;4.07;100.00;99810.91;1457340;89;22059;-83
2023/11/18 00:03:44;;;;;;;6.37;2.20;;;;;;;4.09;100.00;99816.52;1455487;90;21486;-83
2023/11/18 00:06:10;;;;;;;3.67;1.97;;;;;;;4.06;100.00;99813.19;1444785;90;22277;-82
2023/11/18 00:08:36;;;;;;;3.07;2.00;;;;;;;4.02;100.00;99821.39;1451022;90;21488;-82
2023/11/18 00:11:03;;;;;;;2.40;1.77;;;;;;;4.03;100.00;99837.00;1448315;90;21869;-82
2023/11/18 00:13:30;;;;;;;2.33;1.70;;;;;;;4.04;100.00;99831.27;1451926;90;21590;-79
2023/11/18 00:15:57;;;;;;;1.83;1.50;;;;;;;4.02;100.00;99834.00;1457245;90;22218;-80
2023/11/18 00:18:24;;;;;;;2.57;1.40;;;;;;;4.02;100.00;99827.45;1458470;89;21382;-82
2023/11/18 00:20:50;;;;;;;4.23;1.70;;;;;;;4.06;100.00;99849.84;1453019;90;21704;-82
2023/11/18 00:23:17;;;;;;;2.07;1.37;;;;;;;4.03;100.00;99839.61;1451790;90;21457;-82
2023/11/18 00:25:45;;;;;;;2.80;2.07;;;;;;;4.04;100.00;99843.89;1378397;90;21198;-85
2023/11/18 00:28:11;;;;;;;3.03;1.63;;;;;;;4.05;100.00;99841.61;1384254;90;22324;-85
2023/11/18 00:30:38;;;;;;;4.00;2.30;;;;;;;4.04;100.00;99874.00;1531500;89;21221;-82
2023/11/18 00:33:04;;;;;;;2.50;1.30;;;;;;;3.99;100.00;99856.50;1453301;89;21531;-84
2023/11/18 00:35:31;;;;;;;2.30;1.87;;;;;;;4.04;100.00;99856.98;1453761;90;21345;-84
2023/11/18 00:37:58;;;;;;;2.77;1.53;;;;;;;4.04;100.00;99858.77;1455685;90;21324;-82
2023/11/18 00:40:26;;;;;;;5.20;1.73;;;;;;;4.03;100.00;99858.42;1447105;90;22561;-81
2023/11/18 00:42:52;;;;;;;4.37;2.00;;;;;;;4.05;100.00;99853.40;1442414;89;21287;-83
2023/11/18 00:45:18;;;;;;;2.80;1.47;;;;;;;4.06;100.00;99862.94;1447376;90;21367;-83
2023/11/18 00:47:45;;;;;;;2.67;1.80;;;;;;;4.05;100.00;99873.52;1454310;90;21482;-85
2023/11/18 00:50:11;;;;;;;2.33;2.03;;;;;;;4.11;100.00;99866.97;1455051;89;21655;-82
2023/11/18 00:52:39;;;;;;;2.67;1.10;;;;;;;4.10;100.00;99877.10;1451777;90;21597;-82
2023/11/18 00:55:08;;;;;;;2.23;1.57;;;;;;;4.10;100.00;99880.55;1446781;90;22293;-84
2023/11/18 00:57:35;;;;;;;2.23;1.27;;;;;;;4.09;100.00;99876.76;1457715;90;22468;-80
2023/11/18 01:00:02;;;;;;;4.77;1.50;;;;;;;4.14;100.00;99899.47;1450512;90;21849;-80
2023/11/18 01:02:28;;;;;;;2.07;1.33;;;;;;;4.11;100.00;99891.38;1455887;89;21531;-80
2023/11/18 01:04:55;;;;;;;1.93;1.50;;;;;;;4.09;100.00;99885.92;1448726;89;22276;-80
2023/11/18 01:07:21;;;;;;;2.43;1.20;;;;;;;4.14;100.00;99894.23;1455120;90;21442;-79
2023/11/18 01:09:48;;;;;;;2.60;1.70;;;;;;;4.10;100.00;99886.27;1448582;90;21539;-82
2023/11/18 01:12:15;;;;;;;5.07;1.70;;;;;;;4.11;100.00;99895.78;1448958;90;22233;-80
2023/11/18 01:14:41;;;;;;;3.37;1.73;;;;;;;4.11;100.00;99894.47;1453080;90;22462;-80
2023/11/18 01:17:13;;;;;;;2.30;1.53;;;;;;;4.12;100.00;99890.92;1453683;90;21391;-80
2023/11/18 01:19:39;;;;;;;2.13;1.70;;;;;;;4.12;100.00;99893.54;1453806;90;21456;-80
2023/11/18 01:22:06;;;;;;;3.80;1.93;;;;;;;4.17;100.00;99897.92;1454289;90;21575;-79
2023/11/18 01:24:33;;;;;;;1.70;1.30;;;;;;;4.12;100.00;99901.39;1449761;90;21382;-82
2023/11/18 01:26:59;;;;;;;2.13;1.40;;;;;;;4.10;100.00;99896.74;1451022;89;21398;-81
2023/11/18 01:29:26;;;;;;;2.10;1.57;;;;;;;4.14;100.00;99891.61;1444679;90;21464;-81
2023/11/18 01:31:55;;;;;;;1.83;1.20;;;;;;;4.17;100.00;99897.92;1452645;89;21545;-84
2023/11/18 01:34:21;;;;;;;3.17;1.20;;;;;;;4.19;100.00;99896.02;1452265;90;22285;-83
2023/11/18 01:36:52;;;;;;;1.70;1.17;;;;;;;4.11;100.00;99897.09;1443804;89;21397;-84
2023/11/18 01:39:19;;;;;;;2.97;1.80;;;;;;;4.12;100.00;99897.47;1449838;89;21427;-84
2023/11/18 01:41:45;;;;;;;3.97;1.80;;;;;;;4.10;100.00;99894.13;1456783;90;22142;-83
2023/11/18 01:44:15;;;;;;;2.70;1.67;;;;;;;4.14;100.00;99906.84;1451586;90;21516;-84
2023/11/18 01:46:44;;;;;;;1.63;1.23;;;;;;;4.15;100.00;99910.33;1453683;89;22469;-81
2023/11/18 01:49:10;;;;;;;4.77;1.83;;;;;;;4.10;100.00;99909.84;1457251;89;21663;-83
2023/11/18 01:51:37;;;;;;;3.33;1.73;;;;;;;4.13;100.00;99913.05;1449747;90;21346;-84
2023/11/18 01:54:05;;;;;;;3.27;1.80;;;;;;;4.12;100.00;99910.56;1453164;90;21517;-84
2023/11/18 01:56:32;;;;;;;3.17;1.80;;;;;;;4.10;100.00;99917.70;1452204;90;21575;-84
2023/11/18 01:58:58;;;;;;;2.50;1.13;;;;;;;4.11;100.00;99919.35;1449927;89;22211;-83
2023/11/18 02:01:27;;;;;;;3.03;1.50;;;;;;;4.06;100.00;99925.79;1447634;90;22395;-83
2023/11/18 02:03:53;;;;;;;3.60;1.80;;;;;;;4.11;100.00;99920.18;1456669;89;21604;-82
2023/11/18 02:06:21;;;;;;;2.87;1.37;;;;;;;4.12;100.00;99923.66;1446770;90;21346;-83
2023/11/18 02:08:48;;;;;;;4.43;1.53;;;;;;;4.07;100.00;99924.83;1452813;90;21435;-81
2023/11/18 02:11:28;;;;;;;3.53;1.40;;;;;;;4.11;100.00;99925.42;1444412;90;21375;-83
2023/11/18 02:13:58;;;;;;;2.22;1.37;;;;;;;4.09;100.00;99928.66;1448601;90;22261;-82
2023/11/18 02:16:27;;;;;;;2.30;1.50;;;;;;;4.06;100.00;99924.97;1449236;89;21545;-83
2023/11/18 02:18:54;;;;;;;2.63;1.57;;;;;;;4.03;100.00;99918.17;1450195;89;22796;-83
2023/11/18 02:21:23;;;;;;;2.03;1.40;;;;;;;4.04;100.00;99926.38;1455008;89;21316;-83
2023/11/18 02:23:50;;;;;;;2.70;1.60;;;;;;;4.05;100.00;99930.66;1455800;90;22381;-83
2023/11/18 02:26:24;;;;;;;1.97;1.30;;;;;;;4.03;100.00;99922.58;1446044;90;21287;-82
2023/11/18 02:28:52;;;;;;;1.50;1.20;;;;;;;4.01;100.00;99931.85;1458847;89;21368;-81
2023/11/18 02:31:26;;;;;;;7.10;2.40;;;;;;;4.03;100.00;99935.67;1447894;90;21353;-82
2023/11/18 02:34:04;;;;;;;3.90;1.47;;;;;;;4.06;100.00;99936.75;1456754;89;21641;-81
2023/11/18 02:36:45;;;;;;;2.33;1.37;;;;;;;4.03;100.00;99939.13;1454430;89;21405;-83
2023/11/18 02:39:23;;;;;;;;;;;;;;;4.06;100.00;99940.20;1456754;89;21640;-83
2023/11/18 02:41:52;;;;;;;4.30;1.70;;;;;;;4.08;100.00;99932.20;1457816;89;20283;-80
2023/11/18 02:44:23;;;;;;;2.73;1.57;;;;;;;4.04;100.00;99938.16;1453782;90;21441;-81
2023/11/18 02:46:49;;;;;;;2.35;1.57;;;;;;;4.07;100.00;99934.47;1455697;90;21367;-82
2023/11/18 02:49:17;;;;;;;2.00;1.40;;;;;;;4.07;100.00;99937.92;1453581;90;22491;-81
2023/11/18 02:51:45;;;;;;;3.47;1.73;;;;;;;4.07;100.00;99937.09;1448419;89;21433;-81
2023/11/18 02:54:11;;;;;;;1.90;1.47;;;;;;;4.05;100.00;99943.74;1450266;90;21427;-82
2023/11/18 02:56:38;;;;;;;6.03;2.13;;;;;;;4.09;100.00;99939.61;1461429;90;21361;-82
2023/11/18 02:59:08;;;;;;;3.37;1.90;;;;;;;4.05;100.00;99942.44;1447114;89;21368;-81
2023/11/18 03:01:34;;;;;;;2.60;1.80;;;;;;;4.04;100.00;99948.63;1452255;90;21383;-80
2023/11/18 03:04:02;;;;;;;5.10;2.80;;;;;;;4.10;100.00;99956.98;1456247;89;22262;-79
2023/11/18 03:06:28;;;;;;;2.93;1.83;;;;;;;4.07;100.00;99965.90;1457504;90;21538;-81
2023/11/18 03:08:54;;;;;;;2.30;1.67;;;;;;;4.11;100.00;99956.02;1451668;90;22270;-83
2023/11/18 03:11:20;;;;;;;3.10;1.40;;;;;;;4.05;100.00;99958.15;1446882;90;21582;-82
2023/11/18 03:13:47;;;;;;;1.67;1.43;;;;;;;4.02;100.00;99958.39;1449871;90;21346;-82
2023/11/18 03:16:13;;;;;;;3.77;2.23;;;;;;;4.03;100.00;99964.00;1452918;90;21374;-83
2023/11/18 03:18:43;;;;;;;2.53;2.00;;;;;;;4.07;100.00;99961.49;1456463;90;22477;-85
2023/11/18 03:21:13;;;;;;;2.43;1.90;;;;;;;4.12;100.00;99955.09;1461354;90;21360;-81
2023/11/18 03:23:41;;;;;;;2.23;1.40;;;;;;;4.11;100.00;99968.63;1450279;90;22321;-81
2023/11/18 03:26:10;;;;;;;2.10;1.50;;;;;;;4.06;100.00;99970.31;1452029;89;21530;-81
2023/11/18 03:28:38;;;;;;;2.50;2.03;;;;;;;4.09;100.00;99970.56;1451552;89;21405;-83
2023/11/18 03:31:05;;;;;;;3.50;2.10;;;;;;;4.10;100.00;99980.55;1449546;89;22469;-84
2023/11/18 03:33:32;;;;;;;2.10;1.40;;;;;;;4.12;100.00;99973.42;1457165;89;21368;-85
2023/11/18 03:35:59;;;;;;;2.60;1.80;;;;;;;4.09;100.00;99970.56;1451966;90;21589;-83
2023/11/18 03:38:27;;;;;;;1.60;1.43;;;;;;;4.09;100.00;99982.82;1454872;90;21456;-83
2023/11/18 03:40:56;;;;;;;3.30;1.87;;;;;;;4.11;100.00;99983.03;1455335;89;21388;-83
2023/11/18 03:43:23;;;;;;;4.00;2.67;;;;;;;4.16;100.00;99989.25;1449616;89;21891;-81
2023/11/18 03:45:56;;;;;;;3.00;1.80;;;;;;;4.10;100.00;99981.86;1457299;89;22071;-83
2023/11/18 03:48:20;;;;;;;1.87;1.60;;;;;;;4.09;100.00;99978.41;1450363;90;21465;-82
2023/11/18 03:50:46;;;;;;;3.67;1.93;;;;;;;4.10;100.00;99995.78;1450972;90;21412;-82
2023/11/18 03:53:12;;;;;;;3.63;2.23;;;;;;;4.10;100.00;99992.34;1444616;90;22717;-86
2023/11/18 03:55:40;;;;;;;5.43;2.57;;;;;;;4.12;100.00;100000.44;1455857;90;21383;-84
2023/11/18 03:58:08;;;;;;;3.43;1.97;;;;;;;4.11;100.00;99993.52;1444805;90;21448;-83
2023/11/18 04:00:35;;;;;;;4.60;1.80;;;;;;;4.10;100.00;99989.72;1442822;90;21403;-84
2023/11/18 04:03:01;;;;;;;3.20;1.93;;;;;;;4.09;100.00;99993.30;1448845;90;21538;-84
2023/11/18 04:05:27;;;;;;;2.20;1.70;;;;;;;4.10;100.00;99998.88;1449802;90;21599;-81
2023/11/18 04:07:53;;;;;;;3.23;1.87;;;;;;;4.11;100.00;99993.52;1444370;90;21450;-84
2023/11/18 04:10:20;;;;;;;2.43;1.70;;;;;;;4.09;100.00;99999.84;1450458;90;21434;-82
2023/11/18 04:12:47;;;;;;;3.53;1.83;;;;;;;4.02;100.00;100010.76;1452790;89;21374;-84
2023/11/18 04:15:18;;;;;;;2.37;1.80;;;;;;;4.03;100.00;100007.20;1453238;90;21397;-83
2023/11/18 04:17:44;;;;;;;3.92;2.80;;;;;;;4.06;100.00;100006.97;1446291;90;21412;-83
2023/11/18 04:20:11;;;;;;;4.33;2.63;;;;;;;4.06;100.00;100012.21;1439987;90;22086;-83
2023/11/18 04:22:43;;;;;;;3.97;2.13;;;;;;;4.07;100.00;100011.73;1451673;89;21413;-83
2023/11/18 04:25:13;;;;;;;5.23;2.20;;;;;;;4.06;100.00;100011.38;1448151;89;21434;-84
2023/11/18 04:27:39;;;;;;;4.17;2.70;;;;;;;4.11;100.00;100003.16;1451076;90;21516;-83
2023/11/18 04:30:08;;;;;;;5.00;2.10;;;;;;;4.07;100.00;100007.33;1453600;90;21368;-83
2023/11/18 04:32:35;;;;;;;3.30;2.30;;;;;;;4.08;100.00;100008.16;1452493;89;21390;-82
2023/11/18 04:35:07;;;;;;;7.83;1.83;;;;;;;4.09;100.00;100021.62;1456317;89;21412;-83
2023/11/18 04:37:29;;;;;;;4.03;2.87;;;;;;;4.09;100.00;100020.80;1451648;89;21611;-82
2023/11/18 04:39:55;;;;;;;2.33;1.90;;;;;;;4.10;100.00;100014.12;1448130;90;21375;-84
2023/11/18 04:42:21;;;;;;;5.70;2.50;;;;;;;4.11;100.00;100008.40;1452706;90;22431;-81
2023/11/18 04:44:49;;;;;;;4.10;2.13;;;;;;;4.09;100.00;100024.73;1453326;89;21442;-84
2023/11/18 04:47:16;;;;;;;3.00;1.83;;;;;;;4.05;100.00;100014.45;1441802;90;21635;-81
2023/11/18 04:49:42;;;;;;;4.30;2.20;;;;;;;4.06;100.00;100016.14;1455041;89;21482;-81
2023/11/18 04:52:08;;;;;;;5.50;2.53;;;;;;;4.10;100.00;100021.98;1450427;89;21354;-80
2023/11/18 04:54:35;;;;;;;2.33;1.67;;;;;;;4.07;100.00;100019.11;1449506;90;22724;-80
2023/11/18 04:57:02;;;;;;;3.77;1.63;;;;;;;4.10;100.00;100019.84;1443208;90;21308;-78
2023/11/18 04:59:30;;;;;;;2.83;1.60;;;;;;;4.11;100.00;100024.11;1446092;89;21523;-80
2023/11/18 05:01:56;;;;;;;4.60;2.57;;;;;;;4.15;100.00;100036.87;1450718;90;21360;-80
2023/11/18 05:04:22;;;;;;;2.97;1.80;;;;;;;4.14;100.00;100046.14;1456190;90;21493;-80
2023/11/18 05:06:48;;;;;;;2.93;2.30;;;;;;;4.11;100.00;100039.34;1455997;90;21494;-81
2023/11/18 05:09:18;;;;;;;2.20;1.90;;;;;;;4.16;100.00;100035.08;1452762;90;21420;-79
2023/11/18 05:11:43;;;;;;;4.73;1.90;;;;;;;4.14;100.00;100043.52;1446541;89;21538;-80
2023/11/18 05:14:09;;;;;;;5.53;2.23;;;;;;;4.17;100.00;100040.67;1456561;90;21519;-80
2023/11/18 05:16:35;;;;;;;2.73;1.87;;;;;;;4.15;100.00;100047.83;1453641;90;21338;-80
2023/11/18 05:19:01;;;;;;;3.23;1.83;;;;;;;4.14;100.00;100052.20;1456613;89;21376;-81
2023/11/18 05:21:27;;;;;;;2.47;1.50;;;;;;;4.10;100.00;100044.72;1443475;90;21574;-79
2023/11/18 05:23:53;;;;;;;2.20;1.40;;;;;;;4.12;100.00;100046.75;1445571;90;21456;-80
2023/11/18 05:26:20;;;;;;;4.17;1.50;;;;;;;4.14;100.00;100058.75;1455287;90;21339;-81
2023/11/18 05:28:46;;;;;;;1.90;1.67;;;;;;;4.14;100.00;100056.62;1455081;90;22403;-81
2023/11/18 05:31:12;;;;;;;3.03;1.83;;;;;;;4.14;100.00;100055.31;1454363;90;21442;-80
2023/11/18 05:33:39;;;;;;;3.03;1.67;;;;;;;4.12;100.00;100070.33;1456807;90;21412;-78
2023/11/18 05:36:07;;;;;;;3.73;1.93;;;;;;;4.10;100.00;100077.45;1449994;90;21266;-84
2023/11/18 05:38:35;;;;;;;2.10;1.30;;;;;;;4.10;100.00;100076.14;1453234;90;21383;-84
2023/11/18 05:41:03;;;;;;;1.73;1.10;;;;;;;4.10;100.00;100067.80;1454569;90;22338;-82
2023/11/18 05:43:40;;;;;;;2.57;1.37;;;;;;;4.06;100.00;100072.45;1449033;90;21382;-82
2023/11/18 05:46:29;;;;;;;5.40;1.57;;;;;;;4.06;100.00;100080.30;1449863;90;22285;-83
2023/11/18 05:48:52;;;;;;;3.13;2.27;;;;;;;4.02;100.00;100088.01;1450222;89;22159;-81
2023/11/18 05:51:26;;;;;;;1.87;1.53;;;;;;;4.08;100.00;100077.55;1453337;90;21413;-79
2023/11/18 05:53:53;;;;;;;2.70;1.97;;;;;;;4.09;100.00;100087.58;1449203;90;21559;-80
2023/11/18 05:56:22;;;;;;;1.57;1.20;;;;;;;4.10;100.00;100098.41;1448927;89;22224;-80
2023/11/18 05:58:48;;;;;;;2.10;1.40;;;;;;;4.11;100.00;100110.54;1447917;90;21599;-80
2023/11/18 06:01:16;;;;;;;3.20;1.67;;;;;;;4.07;100.00;100106.84;1448301;90;21317;-79
2023/11/18 06:03:43;;;;;;;2.13;1.40;;;;;;;4.10;100.00;100116.74;1454276;89;21390;-79
2023/11/18 06:06:13;;;;;;;3.63;1.97;;;;;;;4.10;100.00;100110.19;1460647;89;21508;-80
2023/11/18 06:08:43;;;;;;;2.85;1.62;;;;;;;4.14;100.00;100114.24;1451443;90;21430;-81
2023/11/18 06:11:14;;;;;;;2.20;1.50;;;;;;;4.13;100.00;100125.20;1454323;89;21397;-81
2023/11/18 06:13:47;;;;;;;2.02;1.52;;;;;;;4.12;100.00;100100.45;1460629;90;21346;-80
2023/11/18 06:16:24;;;;;;;2.40;1.47;;;;;;;4.16;100.00;100108.42;1447897;90;21404;-81
2023/11/18 06:18:53;;;;;;;2.40;1.27;;;;;;;4.12;100.00;100122.70;1459622;90;21475;-79
2023/11/18 06:21:28;;;;;;;3.10;1.27;;;;;;;4.11;100.00;100126.25;1459662;89;21383;-80
2023/11/18 06:23:54;;;;;;;2.43;1.50;;;;;;;4.13;100.00;100130.44;1449784;90;21375;-82
2023/11/18 06:26:21;;;;;;;1.93;1.40;;;;;;;4.16;100.00;100135.45;1458294;90;22196;-81
2023/11/18 06:28:51;;;;;;;2.57;1.73;;;;;;;4.17;100.00;100145.44;1440633;90;22403;-82
2023/11/18 06:31:18;;;;;;;1.50;1.12;;;;;;;4.15;100.00;100139.02;1454566;90;22378;-80
2023/11/18 06:33:47;;;;;;;1.40;1.07;;;;;;;4.14;100.00;100146.98;1459169;90;21354;-81
2023/11/18 06:36:18;;;;;;;4.33;1.40;;;;;;;4.15;100.00;100135.58;1438602;89;21354;-80
2023/11/18 06:38:45;;;;;;;1.67;1.20;;;;;;;4.18;100.00;100151.06;1451936;89;21368;-81
2023/11/18 06:41:15;;;;;;;3.00;1.30;;;;;;;4.15;100.00;100154.74;1456988;89;22366;-81
2023/11/18 06:43:51;;;;;;;4.33;1.40;;;;;;;4.21;100.00;100157.38;1459659;90;22306;-80
2023/11/18 06:46:28;;;;;;;1.40;1.10;;;;;;;4.17;100.00;100167.70;1460439;89;21583;-79
2023/11/18 06:48:56;;;;;;;2.20;1.50;;;;;;;4.17;100.00;100175.56;1446658;89;21420;-80
2023/11/18 06:51:25;;;;;;;1.97;1.20;;;;;;;4.20;100.00;100172.72;1451833;89;21545;-82
2023/11/18 06:53:55;;;;;;;2.57;1.37;;;;;;;4.18;100.00;100174.64;1452161;89;21368;-79
2023/11/18 06:56:20;;;;;;;2.10;1.40;;;;;;;4.23;100.00;100180.35;1445449;89;21570;-79
2023/11/18 06:58:47;;;;;;;2.90;1.50;;;;;;;4.24;100.00;100187.28;1456548;90;21420;-77
2023/11/18 07:01:18;;;;;;;2.17;1.27;;;;;;;4.16;100.00;100192.23;1446637;90;22455;-79
2023/11/18 07:03:43;;;;;;;2.50;1.40;;;;;;;4.18;100.00;100184.64;1444641;89;21487;-79
2023/11/18 07:06:10;;;;;;;1.47;1.07;;;;;;;4.23;100.00;100189.07;1450544;90;21486;-79
2023/11/18 07:08:37;;;;;;;2.00;1.20;;;;;;;4.23;100.00;100199.55;1458414;89;21376;-80
2023/11/18 07:11:05;;;;;;;2.13;1.40;;;;;;;4.21;100.00;100195.37;1456400;89;22278;-81
2023/11/18 07:13:36;;;;;;;2.40;1.30;;;;;;;4.23;100.00;100194.31;1457014;89;22277;-81
2023/11/18 07:16:05;;;;;;;1.70;1.10;;;;;;;4.27;100.00;100196.22;1442900;90;21457;-82
2023/11/18 07:18:31;;;;;;;1.83;1.43;;;;;;;4.25;100.00;100199.42;1456204;90;22202;-83
2023/11/18 07:20:59;;;;;;;2.43;1.50;;;;;;;4.29;100.00;100186.00;1447846;90;21515;-80
2023/11/18 07:23:26;;;;;;;1.53;1.20;;;;;;;4.32;100.00;100195.42;1450147;89;22283;-78
2023/11/18 07:25:53;;;;;;;1.80;1.57;;;;;;;4.30;100.00;100189.45;1455841;89;21523;-78
2023/11/18 07:28:20;;;;;;;2.27;1.70;;;;;;;4.36;100.00;100188.98;1460607;89;21375;-79
2023/11/18 07:30:47;;;;;;;1.43;1.10;;;;;;;4.35;100.00;100190.42;1444978;90;22426;-81
2023/11/18 07:33:15;;;;;;;2.60;1.80;;;;;;;4.39;100.00;100204.48;1451625;90;21412;-79
2023/11/18 07:35:43;;;;;;;1.87;1.47;;;;;;;4.36;100.00;100204.71;1457856;89;21441;-79
2023/11/18 07:38:10;;;;;;;3.23;2.00;;;;;;;4.26;100.00;100199.80;1450233;90;21589;-80
2023/11/18 07:40:42;;;;;;;3.20;1.87;;;;;;;4.20;100.00;100200.22;1457287;90;21515;-82
2023/11/18 07:43:08;;;;;;;2.07;1.37;;;;;;;4.28;100.00;100210.98;1458402;89;21537;-83
2023/11/18 07:45:39;;;;;;;1.90;1.60;;;;;;;4.11;100.00;100191.25;1450985;90;22330;-83
2023/11/18 07:48:11;;;;;;;;;;;;;;;4.20;100.00;100212.88;1453219;90;21523;-81
2023/11/18 07:50:44;;;;;;;3.17;1.97;;;;;;;4.16;100.00;100214.50;1455433;90;20291;-81
2023/11/18 07:53:11;;;;;;;2.20;1.67;;;;;;;4.21;100.00;100218.95;1466253;90;21494;-84
2023/11/18 07:55:42;;;;;;;2.23;1.40;;;;;;;4.17;100.00;100213.55;1451576;90;21383;-84
2023/11/18 07:58:12;;;;;;;7.43;3.77;;;;;;;4.19;100.00;100215.59;1448706;89;21578;-82
2023/11/18 08:00:42;;;;;;;2.93;1.83;;;;;;;4.27;100.00;100217.18;1446326;89;21547;-82
2023/11/18 08:03:13;;;;;;;2.80;1.83;;;;;;;4.27;100.00;100214.56;1455881;90;21405;-82
2023/11/18 08:05:44;;;;;;;3.02;2.15;;;;;;;4.35;100.00;100216.63;1455398;90;21419;-83
2023/11/18 08:08:12;;;;;;;9.90;4.97;;;;;;;4.38;100.00;100215.92;1453548;89;21449;-82
2023/11/18 08:10:40;;;;;;;5.63;2.13;;;;;;;4.35;100.00;100210.91;1462810;89;22351;-83
2023/11/18 08:13:09;;;;;;;5.00;1.83;;;;;;;4.37;100.00;100226.02;1450007;89;21517;-79
2023/11/18 08:15:42;;;;;;;2.93;2.23;;;;;;;4.41;100.00;100220.94;1447684;90;21296;-77
2023/11/18 08:18:11;;;;;;;5.13;2.10;;;;;;;4.40;100.00;100221.89;1450978;90;21413;-78
2023/11/18 08:20:38;;;;;;;3.70;1.97;;;;;;;4.45;100.00;100231.54;1455350;90;21626;-79
2023/11/18 08:23:04;;;;;;;4.77;2.20;;;;;;;4.39;100.00;100225.44;1457734;90;21442;-79
2023/11/18 08:25:36;;;;;;;2.73;1.77;;;;;;;4.43;100.00;100229.98;1455146;89;21509;-78
2023/11/18 08:28:07;;;;;;;3.73;2.30;;;;;;;4.46;100.00;100243.72;1451117;89;21405;-78
2023/11/18 08:30:34;;;;;;;2.93;1.90;;;;;;;4.47;100.00;100244.06;1457851;90;22337;-78
2023/11/18 08:33:01;;;;;;;2.60;2.20;;;;;;;4.41;100.00;100231.41;1463615;90;21508;-78
2023/11/18 08:35:29;;;;;;;3.60;2.30;;;;;;;4.49;100.00;100250.03;1453655;89;21670;-78
2023/11/18 08:37:55;;;;;;;3.50;2.27;;;;;;;4.47;100.00;100245.38;1450546;90;21512;-79
2023/11/18 08:40:22;;;;;;;4.33;2.60;;;;;;;4.52;100.00;100243.26;1463188;90;21619;-78
2023/11/18 08:42:50;;;;;;;3.57;2.30;;;;;;;4.48;100.00;100249.66;1458474;89;22285;-78
2023/11/18 08:45:28;;;;;;;3.30;2.30;;;;;;;4.54;100.00;100265.41;1444906;89;22342;-77
2023/11/18 08:47:57;;;;;;;3.77;2.43;;;;;;;4.58;100.00;100263.42;1452212;89;21308;-79
2023/11/18 08:50:26;;;;;;;2.53;1.63;;;;;;;4.63;100.00;100272.62;1456022;89;22245;-78
2023/11/18 08:52:57;;;;;;;3.57;2.53;;;;;;;4.62;100.00;100268.78;1447071;90;21636;-78
2023/11/18 08:55:25;;;;;;;3.58;2.12;;;;;;;4.68;100.00;100272.26;1446749;90;21427;-79
2023/11/18 08:58:03;;;;;;;4.03;2.10;;;;;;;4.69;100.00;100269.98;1457646;89;21409;-77
2023/11/18 09:03:24;;;;;;;3.63;2.40;;;;;;;4.80;100.00;100272.65;1455498;89;21546;-77
2023/11/18 09:05:59;;;;;;;3.47;2.50;;;;;;;4.80;100.00;100282.31;1456552;89;21486;-78
2023/11/18 09:08:34;;;;;;;5.67;2.57;;;;;;;4.84;100.00;100280.67;1455881;90;21538;-78
2023/11/18 09:11:10;;;;;;;4.57;3.13;;;;;;;4.85;100.00;100273.15;1442796;90;21743;-78
2023/11/18 09:13:38;;;;;;;3.03;2.10;;;;;;;4.82;100.00;100276.00;1457070;89;21412;-78
2023/11/18 09:16:09;;;;;;;3.00;1.97;;;;;;;4.90;100.00;100282.83;1449620;89;22396;-78
2023/11/18 09:18:39;;;;;;;3.67;2.40;;;;;;;4.88;100.00;100282.09;1451792;89;21559;-77
2023/11/18 09:21:06;;;;;;;4.23;3.33;;;;;;;4.85;100.00;100288.05;1454175;90;21361;-79
2023/11/18 09:23:34;;;;;;;2.53;1.97;;;;;;;4.80;100.00;100293.63;1454956;89;21516;-76
2023/11/18 09:26:07;;;;;;;3.30;2.40;;;;;;;4.67;100.00;100290.26;1377061;90;21457;-77
2023/11/18 09:28:30;;;;;;;4.83;2.60;;;;;;;4.72;100.00;100286.83;1533130;89;21457;-77
2023/11/18 09:30:57;;;;;;;3.93;2.77;;;;;;;4.72;100.00;100298.15;1379804;90;21206;-77
2023/11/18 09:33:25;;;;;;;7.57;3.27;;;;;;;4.69;100.00;100289.65;1511367;90;21383;-78
2023/11/18 09:35:58;;;;;;;4.27;3.07;;;;;;;4.75;100.00;100293.16;1377463;89;21409;-77
2023/11/18 09:38:21;;;;;;;4.13;2.93;;;;;;;4.73;100.00;100295.05;1532827;89;21383;-77
2023/11/18 09:40:52;;;;;;;4.17;2.80;;;;;;;4.72;100.00;100302.56;1378875;90;22161;-78
2023/11/18 09:43:20;;;;;;;3.72;3.02;;;;;;;4.77;100.00;100306.13;1369662;90;22072;-78
2023/11/18 09:45:47;;;;;;;5.33;3.57;;;;;;;4.61;100.00;100315.14;1377770;90;21472;-79
2023/11/18 09:48:25;;;;;;;7.90;3.07;;;;;;;4.63;100.00;100311.08;1413829;89;21708;-78
2023/11/18 09:50:50;;;;;;;3.43;2.77;;;;;;;4.65;100.00;100305.25;1456883;89;21420;-77
2023/11/18 09:53:25;;;;;;;5.07;3.87;;;;;;;4.61;100.00;100318.23;1375257;89;21332;-78
2023/11/18 09:56:09;;;;;;;5.47;3.47;;;;;;;4.50;100.00;100320.32;1375661;90;21502;-76
2023/11/18 09:58:43;;;;;;;3.97;2.87;;;;;;;4.38;100.00;100315.50;1375432;90;21316;-79
2023/11/18 10:01:13;;;;;;;3.90;2.83;;;;;;;4.33;100.00;100327.25;1500916;89;21442;-79
2023/11/18 10:03:45;;;;;;;5.20;3.40;;;;;;;4.32;100.00;100312.01;1452860;90;21475;-76
2023/11/18 10:06:11;;;;;;;2.40;1.82;;;;;;;4.26;100.00;100315.08;1503113;90;21437;-79
2023/11/18 10:08:38;;;;;;;3.70;2.50;;;;;;;4.23;100.00;100309.58;1377752;89;21317;-78
2023/11/18 10:11:09;;;;;;;5.87;3.43;;;;;;;4.18;100.00;100318.71;1379450;90;21250;-77
2023/11/18 10:13:34;;;;;;;3.20;2.13;;;;;;;4.15;100.00;100318.93;1535062;89;21442;-80
2023/11/18 10:16:04;;;;;;;3.90;2.33;;;;;;;4.13;100.00;100328.67;1379589;90;21206;-79
2023/11/18 10:18:35;;;;;;;4.33;2.60;;;;;;;4.12;100.00;100319.15;1375068;89;22196;-78
2023/11/18 10:21:00;;;;;;;6.97;3.50;;;;;;;4.18;100.00;100318.23;1529041;89;21324;-78
2023/11/18 10:23:27;;;;;;;4.17;2.77;;;;;;;4.12;100.00;100333.55;1378703;89;22072;-77
2023/11/18 10:25:58;;;;;;;5.97;3.57;;;;;;;4.47;100.00;100317.44;1379162;90;21472;-78
2023/11/18 10:28:32;;;;;;;;;;;;;;;4.73;100.00;100326.51;1537746;90;21229;-75
2023/11/18 10:31:04;;;;;;;4.20;3.00;;;;;;;4.66;100.00;100326.58;1377276;90;20240;-74
2023/11/18 10:33:38;;;;;;;4.50;3.10;;;;;;;4.77;100.00;100341.05;1529758;89;21331;-78
2023/11/18 10:36:12;;;;;;;4.10;3.10;;;;;;;4.72;100.00;100336.16;1535407;90;21162;-77
2023/11/18 10:38:49;;;;;;;7.37;4.47;;;;;;;4.63;100.00;100334.22;1375474;89;22145;-77
2023/11/18 10:41:12;;;;;;;4.63;2.97;;;;;;;4.35;100.00;100341.92;1384748;90;21405;-79
2023/11/18 10:43:40;;;;;;;5.93;3.77;;;;;;;4.35;100.00;100338.47;1378883;89;21413;-77
2023/11/18 10:46:14;;;;;;;5.93;3.77;;;;;;;4.23;100.00;100355.42;1378277;89;22278;-79
2023/11/18 10:48:48;;;;;;;7.17;3.20;;;;;;;4.19;100.00;100344.78;1535383;89;21266;-78
2023/11/18 10:51:19;;;;;;;4.87;3.80;;;;;;;4.16;100.00;100355.48;1535404;89;21355;-79
2023/11/18 10:53:58;;;;;;;5.90;3.98;;;;;;;4.10;100.00;100361.15;1529802;90;21361;-78
2023/11/18 10:56:28;;;;;;;4.67;3.50;;;;;;;4.15;100.00;100362.98;1535204;89;21332;-78
2023/11/18 10:59:01;;;;;;;7.03;4.07;;;;;;;4.17;100.00;100368.09;1535391;90;22043;-78
2023/11/18 11:01:42;;;;;;;4.87;3.37;;;;;;;4.09;100.00;100361.27;1527209;89;21302;-78
2023/11/18 11:04:09;;;;;;;7.53;5.30;;;;;;;3.95;100.00;100359.61;1452214;90;21434;-77
2023/11/18 11:06:36;;;;;;;5.90;4.33;;;;;;;4.03;100.00;100371.70;1450671;90;21404;-77
2023/11/18 11:09:14;;;;;;;6.53;4.90;;;;;;;3.98;100.00;100369.39;1456009;89;22263;-78
2023/11/18 11:11:37;;;;;;;7.60;4.27;;;;;;;4.01;100.00;100372.28;1451641;89;22425;-78
2023/11/18 11:14:05;;;;;;;5.03;3.70;;;;;;;3.95;100.00;100376.16;1524601;89;21331;-78
2023/11/18 11:16:44;;;;;;;5.70;4.00;;;;;;;3.95;100.00;100374.84;1378514;90;21421;-76
2023/11/18 11:19:29;;;;;;;9.00;4.33;;;;;;;3.99;100.00;100382.02;1535385;90;21170;-78
2023/11/18 11:22:07;;;;;;;7.30;4.43;;;;;;;3.94;100.00;100374.49;1531777;89;21384;-78
2023/11/18 11:24:53;;;;;;;7.73;5.00;;;;;;;3.93;100.00;100376.73;1484156;90;21287;-77
2023/11/18 11:27:38;;;;;;;6.40;4.87;;;;;;;3.86;100.00;100383.34;1535356;89;21273;-79
2023/11/18 11:30:13;;;;;;;7.37;5.27;;;;;;;3.88;100.00;100397.15;1535146;89;21479;-78
2023/11/18 11:33:21;;;;;;;6.93;4.40;;;;;;;3.79;100.00;100393.86;1384015;89;21524;-77
2023/11/18 11:35:57;;;;;;;7.00;4.33;;;;;;;3.78;100.00;100400.05;1533604;89;21295;-78
2023/11/18 11:38:22;;;;;;;9.53;4.97;;;;;;;3.75;100.00;100402.87;1535288;89;21505;-79
2023/11/18 11:40:49;;;;;;;7.80;5.30;;;;;;;3.77;100.00;100410.13;1378810;89;21258;-78